createdAt,value
2022-11-15T00:04:35.995Z,46
2022-11-15T00:10:16.229Z,44
2022-11-15T00:15:56.571Z,54
2022-11-15T00:21:36.749Z,48
2022-11-15T00:27:17.081Z,60
2022-11-15T00:32:57.236Z,44
2022-11-15T00:38:37.506Z,50
2022-11-15T00:44:18.229Z,48
2022-11-15T00:49:58.859Z,44
2022-11-15T00:55:39.494Z,44
2022-11-15T01:01:20.230Z,50
2022-11-15T01:07:01.830Z,52
2022-11-15T01:12:42.429Z,44
2022-11-15T01:18:22.547Z,42
2022-11-15T01:24:02.975Z,54
2022-11-15T01:29:43.165Z,54
2022-11-15T01:35:23.500Z,56
2022-11-15T01:41:04.054Z,54
2022-11-15T01:46:43.897Z,40
2022-11-15T01:52:23.953Z,40
2022-11-15T01:58:04.165Z,56
2022-11-15T02:03:44.720Z,54
2022-11-15T02:09:24.892Z,46
2022-11-15T02:15:05.175Z,46
2022-11-15T02:20:45.281Z,44
2022-11-15T02:26:25.529Z,52
2022-11-15T02:32:06.157Z,54
2022-11-15T02:37:46.785Z,44
2022-11-15T02:43:27.159Z,52
2022-11-15T02:49:08.146Z,40
2022-11-15T02:54:48.396Z,44
2022-11-15T03:00:29.152Z,48
2022-11-15T03:06:09.680Z,40
2022-11-15T03:11:49.838Z,52
2022-11-15T03:17:30.269Z,42
2022-11-15T03:23:10.758Z,58
2022-11-15T03:28:51.463Z,56
2022-11-15T03:34:34.247Z,40
2022-11-15T03:40:14.490Z,40
2022-11-15T03:45:57.368Z,58
2022-11-15T03:51:37.590Z,58
2022-11-15T03:57:18.007Z,52
2022-11-15T04:10:28.409Z,54
2022-11-15T04:16:08.810Z,56
2022-11-15T04:21:49.679Z,54
2022-11-15T04:27:29.960Z,48
2022-11-15T04:33:10.496Z,52
2022-11-15T04:38:50.762Z,50
2022-11-15T04:44:31.086Z,44
2022-11-15T04:50:14.022Z,44
2022-11-15T04:55:54.527Z,44
2022-11-15T05:01:35.149Z,52
2022-11-15T05:07:25.834Z,56
2022-11-15T05:13:06.530Z,44
2022-11-15T05:18:47.378Z,56
2022-11-15T05:24:27.721Z,40
2022-11-15T05:30:07.980Z,44
2022-11-15T05:35:50.098Z,48
2022-11-15T05:41:30.682Z,52
2022-11-15T05:47:11.374Z,46
2022-11-15T05:52:51.774Z,56
2022-11-15T05:58:32.628Z,46
2022-11-15T06:04:13.215Z,40
2022-11-15T06:09:53.105Z,42
2022-11-15T06:15:39.223Z,46
2022-11-15T06:21:22.122Z,52
2022-11-15T06:27:02.292Z,48
2022-11-15T06:32:42.648Z,48
2022-11-15T06:38:22.469Z,52
2022-11-15T06:44:02.614Z,48
2022-11-15T06:49:43.046Z,40
2022-11-15T06:55:22.982Z,46
2022-11-15T07:01:03.991Z,48
2022-11-15T07:06:45.079Z,54
2022-11-15T07:12:25.591Z,44
2022-11-15T07:18:05.721Z,46
2022-11-15T07:23:46.274Z,50
2022-11-15T07:29:26.939Z,54
2022-11-15T07:35:07.573Z,56
2022-11-15T07:40:48.341Z,46
2022-11-15T07:46:28.684Z,48
2022-11-15T07:52:09.075Z,54
2022-11-15T07:57:49.585Z,40
2022-11-15T08:03:31.776Z,52
2022-11-15T08:09:13.472Z,48
2022-11-15T08:14:53.855Z,52
2022-11-15T08:20:33.914Z,48
2022-11-15T08:26:14.381Z,52
2022-11-15T08:31:54.874Z,52
2022-11-15T08:37:35.238Z,48
2022-11-15T08:43:15.241Z,52
2022-11-15T08:48:55.426Z,42
2022-11-15T08:54:35.384Z,36
2022-11-15T09:00:15.847Z,56
2022-11-15T09:05:56.063Z,44
2022-11-15T09:11:35.960Z,44
2022-11-15T09:17:25.560Z,40
2022-11-15T09:23:06.017Z,46
2022-11-15T09:28:46.945Z,56
2022-11-15T09:34:27.061Z,46
2022-11-15T09:40:07.365Z,44
2022-11-15T09:45:47.033Z,12
2022-11-15T09:51:27.001Z,10
2022-11-15T09:57:16.860Z,28
2022-11-15T10:02:56.965Z,16
2022-11-15T10:08:37.170Z,10
2022-11-15T10:14:17.802Z,6
2022-11-15T10:20:06.765Z,6
2022-11-15T10:25:46.948Z,0
2022-11-15T10:31:27.576Z,10
2022-11-15T10:37:07.958Z,2
2022-11-15T10:42:48.671Z,2
2022-11-15T10:48:30.147Z,2
2022-11-15T10:54:21.451Z,0
2022-11-15T11:00:10.134Z,6
2022-11-15T11:06:10.775Z,0
2022-11-15T11:11:57.293Z,0
2022-11-15T11:17:40.164Z,0
2022-11-15T11:23:20.954Z,40
2022-11-15T11:29:01.100Z,58
2022-11-15T11:34:41.360Z,42
2022-11-15T11:40:21.365Z,54
2022-11-15T11:46:01.813Z,22
2022-11-15T11:51:42.084Z,56
2022-11-15T11:57:21.911Z,52
2022-11-15T12:03:03.168Z,56
2022-11-15T12:08:44.066Z,46
2022-11-15T12:14:25.232Z,10
2022-11-15T12:20:05.754Z,52
2022-11-15T12:25:45.444Z,56
2022-11-15T12:31:27.605Z,48
2022-11-15T12:37:07.705Z,46
2022-11-15T12:42:49.926Z,62
2022-11-15T12:48:32.048Z,64
2022-11-15T12:54:13.833Z,48
2022-11-15T12:59:54.397Z,44
2022-11-15T13:05:34.915Z,56
2022-11-15T13:11:18.122Z,58
2022-11-15T13:16:58.389Z,44
2022-11-15T13:22:41.508Z,46
2022-11-15T13:28:22.227Z,60
2022-11-15T13:34:02.424Z,46
2022-11-15T13:39:42.769Z,54
2022-11-15T13:45:22.696Z,44
2022-11-15T13:51:03.321Z,40
2022-11-15T14:01:46.156Z,115
2022-11-15T14:07:27.371Z,60
2022-11-15T14:13:08.058Z,46
2022-11-15T14:18:48.492Z,56
2022-11-15T14:24:29.068Z,56
2022-11-15T14:30:12.411Z,46
2022-11-15T14:35:53.446Z,44
2022-11-15T14:41:33.946Z,58
2022-11-15T14:47:14.313Z,46
2022-11-15T14:52:54.862Z,50
2022-11-15T14:58:35.840Z,56
2022-11-15T15:04:16.362Z,52
2022-11-15T15:10:42.288Z,56
2022-11-15T15:16:23.972Z,48
2022-11-15T15:22:04.332Z,52
2022-11-15T15:27:47.708Z,50
2022-11-15T15:33:27.851Z,56
2022-11-15T15:39:23.308Z,54
2022-11-15T15:45:03.697Z,38
2022-11-15T15:50:44.244Z,40
2022-11-15T15:56:24.578Z,50
2022-11-15T16:02:05.059Z,60
2022-11-15T16:07:45.582Z,48
2022-11-15T16:13:25.774Z,68
2022-11-15T16:19:06.258Z,56
2022-11-15T16:24:49.839Z,46
2022-11-15T16:30:30.535Z,46
2022-11-15T16:36:11.205Z,58
2022-11-15T16:41:51.729Z,42
2022-11-15T16:47:35.005Z,52
2022-11-15T16:53:19.106Z,48
2022-11-15T16:58:59.907Z,56
2022-11-15T17:04:40.181Z,44
2022-11-15T17:10:20.402Z,56
2022-11-15T17:16:00.951Z,54
2022-11-15T17:21:40.988Z,44
2022-11-15T17:27:21.203Z,56
2022-11-15T17:33:01.637Z,52
2022-11-15T17:38:41.662Z,56
2022-11-15T17:44:22.208Z,46
2022-11-15T17:50:02.414Z,56
2022-11-15T17:55:43.172Z,44
2022-11-15T18:01:24.040Z,48
2022-11-15T18:07:07.882Z,48
2022-11-15T18:12:55.498Z,60
2022-11-15T18:18:43.820Z,54
2022-11-15T18:24:27.937Z,56
2022-11-15T18:30:11.351Z,54
2022-11-15T18:35:54.506Z,54
2022-11-15T18:41:39.771Z,54
2022-11-15T18:47:37.766Z,54
2022-11-15T18:53:25.539Z,46
2022-11-15T18:59:08.857Z,56
2022-11-15T19:04:52.265Z,50
2022-11-15T19:10:37.750Z,52
2022-11-15T19:16:17.790Z,56
2022-11-15T19:21:58.711Z,44
2022-11-15T19:27:39.226Z,56
2022-11-15T19:33:28.232Z,56
2022-11-15T19:39:11.142Z,60
2022-11-15T19:44:51.651Z,46
2022-11-15T19:50:35.496Z,54
2022-11-15T19:56:23.864Z,56
2022-11-15T20:02:06.767Z,58
2022-11-15T20:07:53.444Z,54
2022-11-15T20:13:36.385Z,46
2022-11-15T20:19:16.808Z,56
2022-11-15T20:24:57.165Z,54
2022-11-15T20:30:37.680Z,42
2022-11-15T20:36:24.292Z,54
2022-11-15T20:42:13.526Z,44
2022-11-15T20:48:00.553Z,42
2022-11-15T20:53:58.491Z,54
2022-11-15T20:59:43.161Z,46
2022-11-15T21:05:26.092Z,56
2022-11-15T21:11:06.383Z,42
2022-11-15T21:16:46.621Z,62
2022-11-15T21:22:30.254Z,54
2022-11-15T21:28:10.704Z,44
2022-11-15T21:33:51.071Z,56
2022-11-15T21:39:31.472Z,54
2022-11-15T21:45:11.710Z,40
2022-11-15T21:50:51.943Z,44
2022-11-15T21:56:32.147Z,48
2022-11-15T22:02:16.213Z,44
2022-11-15T22:07:56.610Z,40
2022-11-15T22:13:36.996Z,54
2022-11-15T22:19:17.721Z,56
2022-11-15T22:24:57.833Z,56
2022-11-15T22:30:37.906Z,52
2022-11-15T22:36:21.345Z,48
2022-11-15T22:42:01.432Z,56
2022-11-15T22:47:44.297Z,46
2022-11-15T22:53:24.921Z,54
2022-11-15T22:59:05.267Z,56
2022-11-15T23:04:46.054Z,40
2022-11-15T23:10:26.349Z,48
2022-11-15T23:16:06.855Z,54
2022-11-15T23:21:47.131Z,46
2022-11-15T23:27:27.848Z,52
2022-11-15T23:33:07.941Z,58
2022-11-15T23:38:48.238Z,54
2022-11-15T23:44:28.618Z,56
2022-11-15T23:50:08.859Z,40
2022-11-15T23:55:49.197Z,56
